Time;durP1;ratioP1;P1;durP2;ratioP2;P2;SDS_P1;SDS_P2;PMS_P1;PMS_P2;Temp;Humidity;BMP_temperature;BMP_pressure;BME280_temperature;BME280_humidity;BME280_pressure;Samples;Min_cycle;Max_cycle;Signal;HPM_P1;HPM_P2
2022/04/18 00:00:24;;;;;;;18.73;11.90;;;8.80;54.40;;;;;;5038963;28;20059;-77
2022/04/18 00:02:50;;;;;;;18.10;11.90;;;8.80;54.60;;;;;;5056096;28;20051;-76
2022/04/18 00:05:16;;;;;;;19.80;11.80;;;8.70;54.60;;;;;;5023511;28;20332;-77
2022/04/18 00:07:42;;;;;;;19.77;12.30;;;8.60;54.80;;;;;;5056449;28;20052;-76
2022/04/18 00:10:08;;;;;;;16.75;11.90;;;8.60;55.30;;;;;;5056233;28;20040;-76
2022/04/18 00:12:33;;;;;;;20.13;12.93;;;8.50;55.30;;;;;;5042422;28;20048;-76
2022/04/18 00:14:59;;;;;;;20.47;11.70;;;8.50;55.10;;;;;;5062315;28;20047;-73
2022/04/18 00:17:25;;;;;;;18.85;12.20;;;8.50;55.20;;;;;;5042685;28;20293;-77
2022/04/18 00:19:51;;;;;;;19.00;11.97;;;8.60;55.10;;;;;;5056078;28;20060;-78
2022/04/18 00:22:17;;;;;;;19.30;11.87;;;8.50;55.30;;;;;;5056090;28;20298;-78
2022/04/18 00:24:42;;;;;;;17.98;12.20;;;8.40;55.10;;;;;;5055879;28;20102;-76
2022/04/18 00:27:08;;;;;;;21.70;12.87;;;8.40;54.90;;;;;;5039617;28;20102;-76
2022/04/18 00:29:34;;;;;;;20.20;12.60;;;8.40;55.60;;;;;;5055712;28;20131;-78
2022/04/18 00:32:00;;;;;;;21.23;11.85;;;8.30;55.40;;;;;;5056123;28;20037;-77
2022/04/18 00:34:26;;;;;;;20.83;12.32;;;8.40;55.10;;;;;;5038831;28;20563;-75
2022/04/18 00:36:51;;;;;;;20.07;12.40;;;8.60;55.00;;;;;;5055473;28;20032;-75
2022/04/18 00:39:17;;;;;;;20.53;11.67;;;8.30;55.30;;;;;;5055449;28;20086;-77
2022/04/18 00:41:43;;;;;;;18.67;11.97;;;8.40;55.00;;;;;;5055955;28;20041;-77
2022/04/18 00:44:08;;;;;;;19.92;12.02;;;8.30;55.10;;;;;;5073563;28;20041;-76
2022/04/18 00:46:34;;;;;;;19.67;13.60;;;8.20;55.00;;;;;;5038822;28;20502;-77
2022/04/18 00:49:00;;;;;;;21.80;12.87;;;8.20;55.30;;;;;;5038833;28;20044;-76
2022/04/18 00:51:26;;;;;;;20.90;12.93;;;8.30;55.20;;;;;;5073457;28;20044;-76
2022/04/18 00:53:54;;;;;;;20.02;11.93;;;8.20;55.30;;;;;;5055238;28;20044;-77
2022/04/18 00:56:21;;;;;;;21.85;12.57;;;8.10;55.50;;;;;;5038554;28;20044;-78
2022/04/18 00:58:48;;;;;;;19.95;12.63;;;8.10;55.40;;;;;;5039016;28;20070;-76
2022/04/18 01:01:15;;;;;;;19.05;12.75;;;8.20;55.60;;;;;;5054991;28;20053;-77
2022/04/18 01:03:42;;;;;;;21.52;13.02;;;8.10;55.40;;;;;;5055652;28;20044;-77
2022/04/18 01:06:08;;;;;;;17.85;11.65;;;8.20;55.90;;;;;;5055318;28;20044;-75
2022/04/18 01:08:34;;;;;;;22.17;13.20;;;8.00;56.30;;;;;;5038938;28;20051;-76
2022/04/18 01:11:00;;;;;;;;;;;8.10;55.70;;;;;;5056061;28;20444;-76
2022/04/18 01:13:27;;;;;;;22.02;13.23;;;8.10;55.80;;;;;;5038363;28;19947;-77
2022/04/18 01:15:57;;;;;;;22.33;13.35;;;7.90;56.00;;;;;;5055497;28;20052;-77
2022/04/18 01:18:23;;;;;;;20.83;13.10;;;7.90;56.20;;;;;;5039091;28;20053;-76
2022/04/18 01:20:49;;;;;;;21.73;13.07;;;7.90;56.40;;;;;;5039489;28;20048;-75
2022/04/18 01:23:17;;;;;;;19.67;12.30;;;7.80;56.50;;;;;;5039219;28;20105;-75
2022/04/18 01:31:11;;;;;;;19.05;12.60;;;7.80;56.80;;;;;;5055638;28;20055;-77
2022/04/18 01:33:37;;;;;;;23.88;13.02;;;7.70;56.80;;;;;;5055671;28;20045;-75
2022/04/18 01:36:03;;;;;;;19.33;13.05;;;7.70;57.40;;;;;;5059446;28;20105;-75
2022/04/18 01:38:28;;;;;;;20.55;13.98;;;7.60;57.00;;;;;;5062990;28;20182;-74
2022/04/18 01:40:54;;;;;;;23.00;13.93;;;7.60;56.70;;;;;;5060885;28;20048;-75
2022/04/18 01:43:20;;;;;;;27.57;14.00;;;7.70;57.20;;;;;;5056092;28;20079;-77
2022/04/18 01:45:45;;;;;;;20.43;13.30;;;7.60;57.30;;;;;;5039762;28;20402;-77
2022/04/18 01:48:11;;;;;;;23.80;14.67;;;7.50;57.20;;;;;;5054698;28;20047;-77
2022/04/18 01:50:38;;;;;;;19.40;12.40;;;7.50;57.40;;;;;;5054985;28;20036;-76
2022/04/18 01:53:04;;;;;;;22.65;13.23;;;7.60;56.90;;;;;;5038148;28;20490;-76
2022/04/18 01:55:30;;;;;;;22.50;13.85;;;7.60;57.00;;;;;;5054659;28;20036;-77
2022/04/18 01:57:56;;;;;;;21.33;13.60;;;7.60;57.20;;;;;;5054946;28;20041;-76
2022/04/18 02:00:22;;;;;;;24.80;13.90;;;7.60;57.40;;;;;;5054495;28;20118;-76
2022/04/18 02:02:48;;;;;;;23.55;14.13;;;7.60;57.10;;;;;;5054564;28;20040;-77
2022/04/18 02:05:13;;;;;;;22.30;13.90;;;7.50;57.30;;;;;;5055324;28;20036;-75
2022/04/18 02:07:39;;;;;;;19.90;13.53;;;7.50;57.50;;;;;;5039229;28;20303;-77
2022/04/18 02:10:06;;;;;;;22.13;13.70;;;7.40;57.80;;;;;;5044573;28;20287;-77
2022/04/18 02:12:33;;;;;;;23.95;14.32;;;7.50;57.40;;;;;;5063720;28;20039;-75
2022/04/18 02:14:59;;;;;;;24.42;14.50;;;7.50;57.50;;;;;;5063571;28;21073;-78
2022/04/18 02:17:24;;;;;;;23.38;13.05;;;7.50;57.70;;;;;;5076955;28;20073;-75
2022/04/18 02:19:50;;;;;;;22.27;14.43;;;7.40;57.80;;;;;;5063004;28;20503;-75
2022/04/18 02:22:16;;;;;;;25.30;13.97;;;7.70;58.00;;;;;;5061772;28;20445;-79
2022/04/18 02:24:42;;;;;;;24.07;14.03;;;7.30;58.40;;;;;;5058576;28;20044;-76
2022/04/18 02:27:09;;;;;;;22.65;13.45;;;7.30;58.30;;;;;;5041868;28;20169;-77
2022/04/18 02:29:35;;;;;;;21.85;14.38;;;7.30;58.10;;;;;;5041579;28;20157;-77
2022/04/18 02:34:44;;;;;;;24.33;15.32;;;7.30;58.50;;;;;;5058513;28;20140;-76
2022/04/18 02:37:10;;;;;;;27.47;14.37;;;7.20;58.10;;;;;;5058240;28;20102;-76
2022/04/18 02:39:36;;;;;;;29.98;14.52;;;7.20;58.20;;;;;;5057895;28;20466;-76
2022/04/18 02:42:03;;;;;;;24.02;15.77;;;7.40;58.60;;;;;;5041624;28;20394;-75
2022/04/18 02:44:28;;;;;;;23.70;15.60;;;7.10;58.70;;;;;;5041501;28;20060;-75
2022/04/18 02:46:55;;;;;;;23.73;15.27;;;7.20;58.70;;;;;;5058111;28;20075;-78
2022/04/18 02:49:20;;;;;;;22.30;14.15;;;7.00;59.00;;;;;;5040885;28;20048;-75
2022/04/18 02:51:46;;;;;;;24.60;14.57;;;7.10;58.70;;;;;;5058057;28;20115;-76
2022/04/18 02:54:15;;;;;;;29.55;16.05;;;7.10;58.80;;;;;;5061834;28;20286;-73
2022/04/18 02:56:40;;;;;;;25.85;15.40;;;7.00;59.00;;;;;;5064317;28;20084;-73
2022/04/18 02:59:06;;;;;;;22.77;13.40;;;7.00;59.30;;;;;;5041682;28;20088;-77
2022/04/18 03:01:32;;;;;;;25.17;15.50;;;7.00;58.80;;;;;;5053974;28;20045;-76
2022/04/18 03:03:57;;;;;;;26.20;15.80;;;7.10;59.20;;;;;;5054520;28;20426;-79
2022/04/18 03:06:23;;;;;;;26.83;15.60;;;7.20;59.10;;;;;;5054411;28;20520;-77
2022/04/18 03:08:49;;;;;;;22.20;15.07;;;6.80;59.50;;;;;;5037626;28;20387;-76
2022/04/18 03:11:15;;;;;;;24.27;15.98;;;6.80;59.40;;;;;;5039874;28;20045;-75
2022/04/18 03:13:47;;;;;;;23.80;15.73;;;6.70;59.60;;;;;;5057654;28;20111;-77
2022/04/18 03:16:13;;;;;;;27.30;15.63;;;6.80;59.40;;;;;;5057682;28;20398;-77
2022/04/18 03:18:40;;;;;;;26.13;17.02;;;6.90;59.30;;;;;;5041030;28;20044;-79
2022/04/18 03:21:06;;;;;;;27.38;15.75;;;6.80;58.90;;;;;;5057394;28;20037;-78
2022/04/18 03:23:32;;;;;;;24.83;16.08;;;6.90;58.90;;;;;;5057385;28;20059;-77
2022/04/18 03:25:58;;;;;;;24.08;15.65;;;6.80;59.10;;;;;;5057121;28;20048;-76
2022/04/18 03:28:25;;;;;;;27.23;15.93;;;7.10;59.20;;;;;;5057156;28;20050;-76
2022/04/18 03:30:54;;;;;;;25.70;15.43;;;6.70;59.10;;;;;;5056765;28;20491;-76
2022/04/18 03:33:20;;;;;;;24.98;16.60;;;6.70;59.40;;;;;;5040466;28;20368;-78
2022/04/18 03:41:15;;;;;;;24.05;16.25;;;6.60;59.70;;;;;;5056992;28;20056;-78
2022/04/18 03:43:40;;;;;;;29.65;17.13;;;6.50;60.20;;;;;;5057050;28;20045;-78
2022/04/18 03:46:06;;;;;;;27.43;15.43;;;6.60;59.50;;;;;;5056566;28;20429;-75
2022/04/18 03:48:32;;;;;;;23.85;15.25;;;6.60;59.60;;;;;;5040217;28;20059;-75
2022/04/18 03:50:58;;;;;;;26.95;17.27;;;6.60;60.60;;;;;;5056662;28;20410;-77
2022/04/18 03:53:24;;;;;;;26.73;16.05;;;6.50;60.20;;;;;;5040322;28;20099;-77
2022/04/18 03:55:50;;;;;;;24.98;15.55;;;6.70;60.30;;;;;;5040074;28;20087;-76
2022/04/18 03:58:16;;;;;;;28.30;17.02;;;6.50;60.10;;;;;;5056247;28;20099;-77
2022/04/18 04:00:42;;;;;;;26.90;16.00;;;6.40;60.20;;;;;;5055965;28;20049;-76
2022/04/18 04:03:11;;;;;;;30.05;17.33;;;6.50;59.90;;;;;;5039800;28;20158;-77
2022/04/18 04:05:38;;;;;;;27.00;17.05;;;6.40;60.30;;;;;;5039470;28;20046;-76
2022/04/18 04:08:04;;;;;;;26.20;17.35;;;6.30;61.00;;;;;;5044012;28;20032;-73
2022/04/18 04:10:30;;;;;;;;;;;6.30;60.90;;;;;;5063085;28;20045;-75
2022/04/18 04:12:56;;;;;;;;;;;6.30;60.50;;;;;;5039890;28;20428;-76
2022/04/18 04:15:21;;;;;;;;;;;6.30;60.80;;;;;;5039773;28;19917;-77
2022/04/18 04:17:47;;;;;;;;;;;6.30;60.20;;;;;;5039829;28;19920;-80
2022/04/18 04:20:13;;;;;;;;;;;6.30;61.10;;;;;;5039700;28;20017;-77
2022/04/18 04:22:47;;;;;;;;;;;6.20;61.00;;;;;;5039979;28;19924;-75
2022/04/18 04:25:12;;;;;;;;;;;6.20;60.90;;;;;;5040163;28;19935;-75
2022/04/18 04:27:38;;;;;;;;;;;6.30;61.20;;;;;;5056526;28;19999;-75
2022/04/18 04:30:04;;;;;;;;;;;6.20;61.00;;;;;;5039570;28;19931;-76
2022/04/18 04:32:29;;;;;;;;;;;6.00;61.70;;;;;;5039890;28;19970;-77
2022/04/18 04:34:55;;;;;;;;;;;6.10;61.80;;;;;;5056228;28;19927;-76
2022/04/18 04:37:20;;;;;;;;;;;6.00;61.80;;;;;;5039890;28;19985;-76
2022/04/18 04:39:46;;;;;;;;;;;6.00;62.30;;;;;;5055880;28;19920;-75
2022/04/18 04:42:12;;;;;;;;;;;5.90;62.70;;;;;;5039827;28;19929;-77
2022/04/18 04:44:38;;;;;;;;;;;6.00;63.00;;;;;;5039656;28;20278;-77
2022/04/18 04:47:04;;;;;;;;;;;5.70;63.30;;;;;;5056006;28;19926;-75
2022/04/18 04:49:30;;;;;;;;;;;5.80;63.40;;;;;;5039246;28;19920;-79
2022/04/18 04:51:56;;;;;;;;;;;5.80;63.00;;;;;;5039745;28;19920;-76
2022/04/18 04:54:21;;;;;;;;;;;5.90;62.90;;;;;;5039271;28;19916;-77
2022/04/18 04:56:47;;;;;;;;;;;5.80;62.90;;;;;;5056001;28;19916;-76
2022/04/18 04:59:12;;;;;;;;;;;5.90;62.40;;;;;;5039105;28;19916;-77
2022/04/18 05:01:38;;;;;;;;;;;5.90;62.20;;;;;;5055278;28;20304;-79
2022/04/18 05:04:06;;;;;;;;;;;5.90;62.00;;;;;;5039415;28;19925;-76
2022/04/18 05:06:32;;;;;;;;;;;6.00;62.10;;;;;;5039536;28;19927;-78
2022/04/18 05:08:58;;;;;;;;;;;6.20;61.90;;;;;;5039221;28;19950;-75
2022/04/18 05:11:23;;;;;;;;;;;6.00;61.40;;;;;;5039562;28;19924;-77
2022/04/18 05:13:49;;;;;;;;;;;6.00;61.30;;;;;;5055910;28;19976;-77
2022/04/18 05:16:15;;;;;;;;;;;5.90;60.90;;;;;;5055850;28;19949;-75
2022/04/18 05:18:40;;;;;;;;;;;6.60;60.40;;;;;;5056321;28;20291;-74
2022/04/18 05:21:06;;;;;;;;;;;6.10;60.70;;;;;;5046051;28;20030;-73
2022/04/18 05:23:31;;;;;;;;;;;6.20;60.20;;;;;;5042452;28;20007;-77
2022/04/18 05:25:57;;;;;;;;;;;6.40;59.70;;;;;;5056118;28;19921;-78
2022/04/18 05:28:23;;;;;;;;;;;6.40;59.60;;;;;;5039188;28;20356;-76
2022/04/18 05:30:48;;;;;;;;;;;6.50;59.40;;;;;;5055551;28;19927;-79
2022/04/18 05:33:14;;;;;;;;;;;6.60;59.80;;;;;;5055742;28;19973;-79
2022/04/18 05:35:39;;;;;;;;;;;6.60;59.60;;;;;;5055679;28;19920;-77
2022/04/18 05:38:05;;;;;;;;;;;6.80;58.80;;;;;;5055888;28;19924;-77
2022/04/18 05:40:31;;;;;;;;;;;6.90;58.30;;;;;;5039376;28;20436;-79
2022/04/18 05:42:57;;;;;;;;;;;6.90;58.40;;;;;;5056095;28;19920;-75
2022/04/18 05:45:22;;;;;;;;;;;7.10;58.20;;;;;;5055801;28;19920;-75
2022/04/18 05:47:48;;;;;;;;;;;7.10;58.20;;;;;;5055870;28;19921;-76
2022/04/18 05:50:13;;;;;;;;;;;7.10;58.60;;;;;;5054974;28;20014;-77
2022/04/18 05:52:39;;;;;;;;;;;7.40;58.60;;;;;;5058607;28;20324;-77
2022/04/18 05:55:05;;;;;;;;;;;7.30;58.10;;;;;;5043071;28;19986;-76
2022/04/18 05:57:30;;;;;;;;;;;7.30;57.60;;;;;;5043518;28;19970;-75
2022/04/18 05:59:56;;;;;;;;;;;7.40;57.80;;;;;;5044375;28;19934;-75
2022/04/18 06:02:21;;;;;;;;;;;7.50;58.10;;;;;;5061561;28;20367;-78
2022/04/18 06:04:47;;;;;;;;;;;7.80;58.30;;;;;;5067885;28;19927;-78
2022/04/18 06:07:13;;;;;;;;;;;7.60;58.10;;;;;;5084536;28;19924;-76
2022/04/18 06:09:38;;;;;;;;;;;7.70;57.60;;;;;;5057504;28;19927;-77
2022/04/18 06:12:04;;;;;;;;;;;7.90;57.40;;;;;;5059678;28;19931;-77
2022/04/18 06:14:30;;;;;;;;;;;8.00;56.60;;;;;;5042727;28;20278;-80
2022/04/18 06:16:56;;;;;;;;;;;7.90;57.40;;;;;;5058809;28;19920;-78
2022/04/18 06:19:22;;;;;;;;;;;8.10;57.00;;;;;;5058793;28;19924;-77
2022/04/18 06:21:51;;;;;;;;;;;8.20;56.30;;;;;;5025965;28;19916;-78
2022/04/18 06:24:18;;;;;;;;;;;8.30;56.10;;;;;;5058757;28;20386;-77
2022/04/18 06:26:44;;;;;;;;;;;8.40;56.50;;;;;;5059517;28;19920;-72
2022/04/18 06:29:09;;;;;;;;;;;8.50;56.20;;;;;;5042285;28;19927;-75
2022/04/18 06:31:35;;;;;;;;;;;8.50;56.20;;;;;;5041990;28;19927;-74
2022/04/18 06:34:00;;;;;;;;;;;8.60;55.80;;;;;;5046976;28;19928;-72
2022/04/18 06:36:26;;;;;;;;;;;8.80;56.60;;;;;;5046720;28;19927;-79
2022/04/18 06:38:51;;;;;;;;;;;9.10;56.30;;;;;;5058283;28;19920;-76
2022/04/18 06:41:17;;;;;;;;;;;9.00;56.00;;;;;;5041575;28;20294;-74
2022/04/18 06:43:43;;;;;;;;;;;8.90;56.30;;;;;;5041614;28;19962;-76
2022/04/18 06:46:08;;;;;;;;;;;9.20;55.30;;;;;;5058659;28;19923;-76
2022/04/18 06:48:34;;;;;;;;;;;9.40;56.40;;;;;;5075396;28;19924;-76
2022/04/18 06:50:59;;;;;;;;;;;9.50;55.70;;;;;;5058334;28;19950;-76
2022/04/18 06:53:25;;;;;;;;;;;9.60;54.30;;;;;;5042312;28;19920;-77
2022/04/18 06:58:37;;;;;;;;;;;10.10;55.10;;;;;;5058440;28;19979;-77
2022/04/18 07:01:05;;;;;;;;;;;10.40;53.10;;;;;;5058145;28;19963;-79
2022/04/18 07:03:31;;;;;;;;;;;10.20;54.10;;;;;;5057838;28;19967;-78
2022/04/18 07:05:59;;;;;;;;;;;10.50;53.30;;;;;;5076402;28;19920;-77
2022/04/18 07:08:24;;;;;;;;;;;10.60;52.80;;;;;;5041461;28;19917;-81
2022/04/18 07:10:50;;;;;;;;;;;10.80;52.60;;;;;;5041605;28;19923;-79
2022/04/18 07:13:16;;;;;;;;;;;10.90;52.30;;;;;;5041361;28;19920;-79
2022/04/18 07:15:47;;;;;;;;;;;11.10;52.30;;;;;;5057805;28;20259;-80
2022/04/18 07:18:13;;;;;;;;;;;11.30;51.00;;;;;;5057575;28;19959;-75
2022/04/18 07:20:41;;;;;;;;;;;11.30;52.20;;;;;;5041109;28;19955;-77
2022/04/18 07:23:07;;;;;;;;;;;11.70;51.20;;;;;;5025686;28;19916;-79
2022/04/18 07:25:32;;;;;;;;;;;11.60;51.20;;;;;;5058175;28;19923;-79
2022/04/18 07:27:58;;;;;;;;;;;12.00;49.70;;;;;;5042148;28;20076;-78
2022/04/18 07:30:29;;;;;;;;;;;12.00;50.10;;;;;;5035254;28;19921;-78
2022/04/18 07:33:03;;;;;;;;;;;12.10;50.40;;;;;;5051293;28;20171;-77
2022/04/18 07:35:29;;;;;;;;;;;12.20;51.10;;;;;;5061250;28;19939;-76
2022/04/18 07:40:39;;;;;;;;;;;12.70;49.30;;;;;;5070127;28;19916;-80
2022/04/18 07:43:05;;;;;;;;;;;12.90;49.40;;;;;;5057155;28;19958;-76
2022/04/18 07:45:35;;;;;;;;;;;13.00;48.10;;;;;;5089306;28;19927;-75
2022/04/18 07:48:15;;;;;;;;;;;12.90;47.90;;;;;;5063380;28;19920;-77
2022/04/18 08:00:55;;;;;;;;;;;13.60;46.70;;;;;;4959139;28;19932;-74
2022/04/18 08:03:21;;;;;;;;;;;13.30;48.10;;;;;;5015499;28;19928;-77
2022/04/18 08:05:54;;;;;;;;;;;13.70;47.30;;;;;;5041230;28;19916;-77
2022/04/18 08:08:35;;;;;;;;;;;13.80;46.80;;;;;;5038332;28;20343;-80
2022/04/18 08:11:17;;;;;;;;;;;13.70;45.90;;;;;;5053455;28;20312;-76
2022/04/18 08:52:50;;;;;;;;;;;15.50;44.50;;;;;;5091383;28;19920;-68
2022/04/18 08:55:16;;;;;;;;;;;15.50;42.70;;;;;;5074591;28;19931;-72
2022/04/18 08:57:41;;;;;;;;;;;15.50;44.30;;;;;;5062650;28;20289;-71
2022/04/18 09:00:07;;;;;;;;;;;15.60;45.80;;;;;;5079193;28;19924;-72
2022/04/18 09:02:33;;;;;;;;;;;15.60;44.70;;;;;;5082654;28;19922;-72
2022/04/18 09:04:59;;;;;;;;;;;15.90;44.90;;;;;;5065627;28;19927;-72
2022/04/18 09:07:24;;;;;;;;;;;16.10;45.70;;;;;;5066536;28;19993;-72
2022/04/18 09:09:55;;;;;;;;;;;16.40;43.40;;;;;;5056530;28;19920;-72
2022/04/18 09:12:22;;;;;;;;;;;15.90;42.50;;;;;;5077578;28;19964;-71
2022/04/18 09:14:48;;;;;;;;;;;16.10;43.10;;;;;;5060198;28;19927;-71
2022/04/18 09:17:27;;;;;;;;;;;16.00;43.40;;;;;;5076104;28;19920;-73
2022/04/18 09:20:09;;;;;;;;;;;15.90;43.60;;;;;;5073640;28;19923;-71
2022/04/18 09:22:45;;;;;;;;;;;16.10;44.70;;;;;;5073468;28;19920;-73
2022/04/18 09:25:20;;;;;;;;;;;16.40;42.70;;;;;;5056412;28;19916;-73
2022/04/18 09:27:49;;;;;;;;;;;16.40;44.50;;;;;;5045685;28;19916;-75
2022/04/18 09:30:17;;;;;;;;;;;16.50;41.80;;;;;;5078515;28;19920;-72
2022/04/18 09:32:54;;;;;;;;;;;16.50;42.30;;;;;;5079115;28;19916;-72
2022/04/18 09:35:23;;;;;;;;;;;16.70;42.40;;;;;;5079339;28;20384;-72
2022/04/18 09:37:50;;;;;;;;;;;16.80;43.00;;;;;;5063307;28;19985;-72
2022/04/18 09:40:20;;;;;;;;;;;17.00;41.80;;;;;;5079670;28;19923;-73
2022/04/18 09:42:46;;;;;;;;;;;16.90;42.70;;;;;;5079026;28;19968;-71
2022/04/18 09:45:12;;;;;;;;;;;16.90;41.90;;;;;;5062552;28;19967;-73
2022/04/18 09:47:37;;;;;;;;;;;17.20;41.40;;;;;;5078913;28;19916;-71
2022/04/18 09:50:59;;;;;;;;;;;17.20;41.20;;;;;;5062189;28;19923;-73
2022/04/18 09:53:04;;;;;;;;;;;17.20;42.60;;;;;;5077305;28;20305;-74
2022/04/18 09:55:30;;;;;;;;;;;17.30;41.50;;;;;;5062582;28;19920;-75
2022/04/18 09:58:02;;;;;;;;;;;17.50;43.90;;;;;;5079473;28;19920;-71
2022/04/18 10:00:28;;;;;;;;;;;17.60;42.10;;;;;;5062770;28;20012;-75
2022/04/18 10:02:54;;;;;;;;;;;17.60;40.30;;;;;;5079586;28;20338;-72
2022/04/18 10:05:20;;;;;;;;;;;17.70;41.40;;;;;;5078911;28;20365;-74
2022/04/18 10:07:47;;;;;;;;;;;17.60;42.20;;;;;;5062010;28;19931;-73
2022/04/18 10:10:13;;;;;;;;;;;17.90;40.70;;;;;;5062356;28;19916;-72
2022/04/18 10:12:38;;;;;;;;;;;18.10;42.60;;;;;;5078794;28;19966;-74
2022/04/18 10:15:07;;;;;;;;;;;18.30;39.70;;;;;;5062195;28;20015;-69
2022/04/18 10:17:35;;;;;;;;;;;18.50;39.70;;;;;;5062199;28;20340;-69
2022/04/18 10:20:10;;;;;;;;;;;18.60;40.00;;;;;;5078866;28;20289;-72
2022/04/18 10:22:54;;;;;;;;;;;18.80;40.40;;;;;;5077257;28;19927;-73
2022/04/18 10:25:49;;;;;;;;;;;18.80;39.40;;;;;;5074167;28;19916;-70
2022/04/18 10:28:17;;;;;;;;;;;18.70;38.70;;;;;;5039044;28;19925;-70
2022/04/18 10:30:57;;;;;;;;;;;18.70;40.00;;;;;;5059507;28;19974;-71
2022/04/18 10:33:23;;;;;;;;;;;18.80;38.30;;;;;;5078134;28;20382;-73
2022/04/18 10:36:00;;;;;;;;;;;18.50;39.20;;;;;;5075296;28;20040;-73
2022/04/18 10:45:42;;;;;;;;;;;18.50;41.60;;;;;;5030366;28;20016;-77
2022/04/18 10:48:09;;;;;;;;;;;18.50;40.40;;;;;;5016108;28;19917;-71
2022/04/18 10:50:52;;;;;;;;;;;18.80;38.40;;;;;;5000981;28;20346;-75
2022/04/18 10:53:19;;;;;;;;;;;18.80;40.60;;;;;;5033176;28;19920;-71
2022/04/18 10:55:51;;;;;;;;;;;18.90;38.60;;;;;;5041687;28;20334;-72
2022/04/18 10:58:20;;;;;;;;;;;18.80;40.10;;;;;;5058023;28;19924;-72
2022/04/18 11:00:47;;;;;;;;;;;19.10;38.80;;;;;;5041472;28;19931;-76
2022/04/18 11:03:13;;;;;;;;;;;19.20;38.40;;;;;;5058110;28;19927;-74
2022/04/18 11:05:38;;;;;;;;;;;19.50;37.90;;;;;;5041740;28;19999;-77
2022/04/18 11:08:24;;;;;;;;;;;19.40;37.80;;;;;;5057832;28;20011;-74
2022/04/18 11:10:49;;;;;;;;;;;19.20;39.40;;;;;;5041259;28;19927;-77
2022/04/18 11:13:15;;;;;;;;;;;18.80;38.70;;;;;;5058005;28;19920;-77
2022/04/18 11:15:41;;;;;;;;;;;18.60;36.80;;;;;;5040969;28;20281;-73
2022/04/18 11:18:26;;;;;;;;;;;18.80;36.60;;;;;;5041411;28;19928;-71
2022/04/18 11:20:52;;;;;;;;;;;19.10;35.50;;;;;;5041206;28;19921;-73
2022/04/18 11:23:21;;;;;;;;;;;19.30;35.00;;;;;;5041385;28;19943;-75
2022/04/18 11:25:50;;;;;;;;;;;19.00;35.00;;;;;;5041093;28;19934;-74
2022/04/18 11:28:16;;;;;;;;;;;19.10;34.20;;;;;;5047848;28;19924;-73
2022/04/18 11:30:41;;;;;;;;;;;19.20;32.60;;;;;;5057537;28;19920;-73
2022/04/18 11:33:14;;;;;;;;;;;19.40;32.40;;;;;;5074010;28;19963;-76
2022/04/18 11:35:40;;;;;;;;;;;19.30;31.50;;;;;;5073858;28;20400;-72
2022/04/18 11:38:07;;;;;;;;;;;19.30;32.30;;;;;;5074324;28;19921;-72
2022/04/18 11:40:44;;;;;;;;;;;19.30;31.90;;;;;;5057491;28;19920;-72
2022/04/18 11:43:13;;;;;;;;;;;19.40;31.10;;;;;;5077023;28;19920;-73
2022/04/18 11:45:39;;;;;;;;;;;19.40;31.90;;;;;;5060363;28;19916;-73
2022/04/18 11:48:06;;;;;;;;;;;19.60;30.30;;;;;;5076862;28;19963;-72
2022/04/18 11:50:36;;;;;;;;;;;19.90;29.60;;;;;;5075686;28;19920;-74
2022/04/18 11:53:03;;;;;;;;;;;19.70;29.50;;;;;;5060627;28;20316;-73
2022/04/18 11:55:29;;;;;;;;;;;19.70;31.20;;;;;;5077359;28;20361;-73
2022/04/18 11:57:55;;;;;;;;;;;20.00;29.10;;;;;;5060540;28;19924;-73
2022/04/18 12:08:39;;;;;;;;;;;19.80;30.70;;;;;;5077181;28;19942;-75
2022/04/18 12:11:04;;;;;;;;;;;19.80;30.30;;;;;;5076235;28;19927;-79
2022/04/18 12:13:31;;;;;;;;;;;19.80;30.00;;;;;;5076728;28;19919;-79
2022/04/18 12:15:59;;;;;;;;;;;19.60;32.10;;;;;;5060159;28;19920;-75
2022/04/18 12:18:25;;;;;;;;;;;19.70;33.00;;;;;;5076351;28;19916;-76
2022/04/18 12:20:51;;;;;;;;;;;20.00;33.10;;;;;;5076656;28;19923;-75
2022/04/18 12:23:19;;;;;;;;;;;20.00;31.40;;;;;;5059815;28;19968;-78
2022/04/18 12:25:45;;;;;;;;;;;20.10;32.90;;;;;;5076877;28;19920;-76
2022/04/18 12:28:11;;;;;;;;;;;20.10;32.40;;;;;;5060032;28;19924;-77
2022/04/18 12:30:37;;;;;;;;;;;20.10;33.10;;;;;;5059707;28;19920;-73
2022/04/18 12:33:22;;;;;;;;;;;20.00;32.90;;;;;;5076101;28;19920;-75
2022/04/18 12:35:48;;;;;;;;;;;20.00;31.30;;;;;;5059375;28;19916;-77
2022/04/18 12:38:15;;;;;;;;;;;19.80;30.40;;;;;;5076159;28;19916;-77
2022/04/18 12:40:42;;;;;;;;;;;19.70;31.70;;;;;;5076300;28;20028;-76
2022/04/18 12:43:13;;;;;;;;;;;19.70;33.30;;;;;;5059221;28;19927;-75
2022/04/18 12:45:42;;;;;;;;;;;19.40;32.20;;;;;;5059288;28;19960;-77
2022/04/18 12:48:08;;;;;;;;;;;19.70;31.80;;;;;;5059557;28;19916;-74
2022/04/18 12:50:34;;;;;;;;;;;19.80;33.00;;;;;;5059399;28;19920;-75
2022/04/18 12:53:03;;;;;;;;;;;19.60;32.20;;;;;;5059384;28;19923;-73
2022/04/18 12:55:31;;;;;;;;;;;19.80;33.40;;;;;;5058555;28;19916;-75
2022/04/18 12:58:00;;;;;;;;;;;19.90;32.20;;;;;;5074673;28;19916;-76
2022/04/18 13:00:36;;;;;;;;;;;20.10;32.90;;;;;;5075366;28;19931;-76
2022/04/18 13:03:06;;;;;;;;;;;20.00;31.20;;;;;;5076291;28;19951;-77
2022/04/18 13:05:33;;;;;;;;;;;20.00;30.70;;;;;;5059559;28;20277;-76
2022/04/18 13:08:05;;;;;;;;;;;20.10;32.80;;;;;;5059271;28;19920;-77
2022/04/18 13:10:32;;;;;;;;;;;20.20;33.40;;;;;;5059169;28;20015;-74
2022/04/18 13:12:59;;;;;;;;;;;20.40;32.00;;;;;;5076232;28;20281;-74
2022/04/18 13:15:24;;;;;;;;;;;20.40;31.20;;;;;;5059716;28;20014;-76
2022/04/18 13:17:57;;;;;;;;;;;20.20;31.00;;;;;;5076223;28;20352;-75
2022/04/18 13:20:24;;;;;;;;;;;20.40;33.00;;;;;;5059689;28;20290;-75
2022/04/18 13:22:50;;;;;;;;;;;20.00;30.50;;;;;;5065955;28;19959;-72
2022/04/18 13:25:16;;;;;;;;;;;20.00;32.10;;;;;;5086222;28;19920;-75
2022/04/18 13:27:42;;;;;;;;;;;20.20;32.50;;;;;;5080914;28;19982;-74
2022/04/18 13:30:08;;;;;;;;;;;20.40;33.20;;;;;;5083222;28;19908;-75
2022/04/18 13:32:35;;;;;;;;;;;20.50;33.20;;;;;;5085382;28;19930;-77
2022/04/18 13:35:01;;;;;;;;;;;20.40;31.80;;;;;;5075510;28;19923;-75
2022/04/18 13:37:27;;;;;;;;;;;20.50;32.00;;;;;;5059031;28;19965;-76
2022/04/18 13:39:53;;;;;;;;;;;20.50;32.00;;;;;;5075919;28;20340;-79
2022/04/18 13:42:18;;;;;;;;;;;20.30;32.50;;;;;;5059606;28;20008;-76
2022/04/18 13:44:44;;;;;;;;;;;20.40;31.70;;;;;;5075247;28;20234;-75
2022/04/18 13:47:10;;;;;;;;;;;20.60;31.40;;;;;;5059179;28;19920;-75
2022/04/18 13:49:37;;;;;;;;;;;20.70;33.10;;;;;;5075464;28;19965;-74
2022/04/18 13:52:03;;;;;;;;;;;20.80;33.10;;;;;;5075438;28;19920;-76
2022/04/18 13:54:29;;;;;;;;;;;21.00;31.50;;;;;;5059117;28;19927;-76
2022/04/18 13:56:56;;;;;;;;;;;20.90;32.60;;;;;;5058897;28;19920;-76
2022/04/18 13:59:22;;;;;;;;;;;20.90;30.90;;;;;;5075734;28;19920;-76
2022/04/18 14:01:48;;;;;;;;;;;20.50;31.00;;;;;;5058554;28;19920;-77
2022/04/18 14:04:13;;;;;;;;;;;20.40;33.60;;;;;;5075605;28;20274;-75
2022/04/18 14:06:39;;;;;;;;;;;20.60;31.60;;;;;;5075823;28;19967;-77
2022/04/18 14:09:05;;;;;;;;;;;20.60;33.60;;;;;;5058798;28;20330;-74
2022/04/18 14:11:40;;;;;;;;;;;20.60;31.70;;;;;;5075693;28;19920;-77
2022/04/18 14:14:08;;;;;;;;;;;20.70;33.50;;;;;;5058105;28;20401;-75
2022/04/18 14:22:05;;;;;;;;;;;20.20;30.00;;;;;;5078425;28;19927;-74
2022/04/18 14:24:31;;;;;;;;;;;20.30;30.70;;;;;;5062176;28;19916;-76
2022/04/18 14:26:57;;;;;;;;;;;20.70;30.30;;;;;;5078656;28;19920;-74
2022/04/18 14:29:23;;;;;;;;;;;20.50;30.90;;;;;;5062333;28;19934;-74
2022/04/18 14:31:51;;;;;;;;;;;20.60;31.20;;;;;;5061810;28;19924;-75
2022/04/18 14:34:17;;;;;;;;;;;20.60;31.60;;;;;;5062129;28;19927;-74
2022/04/18 14:36:42;;;;;;;;;;;20.70;31.90;;;;;;5078893;28;20348;-75
2022/04/18 14:39:08;;;;;;;;;;;20.70;30.00;;;;;;5062106;28;19920;-72
2022/04/18 14:41:33;;;;;;;;;;;21.00;31.70;;;;;;5078729;28;19927;-75
2022/04/18 14:44:02;;;;;;;;;;;21.40;30.10;;;;;;5078438;28;19920;-73
2022/04/18 14:46:28;;;;;;;;;;;21.50;30.30;;;;;;5078467;28;20358;-74
2022/04/18 14:48:55;;;;;;;;;;;21.90;29.40;;;;;;5078420;28;20344;-71
2022/04/18 14:51:21;;;;;;;;;;;21.70;29.90;;;;;;5077854;28;20018;-71
2022/04/18 14:53:49;;;;;;;;;;;21.50;29.70;;;;;;5078342;28;19916;-74
2022/04/18 14:56:18;;;;;;;;;;;21.70;28.20;;;;;;5079749;28;20356;-72
2022/04/18 14:58:43;;;;;;;;;;;21.40;30.70;;;;;;5079461;28;19920;-72
2022/04/18 15:01:12;;;;;;;;;;;21.70;29.80;;;;;;5079776;28;19920;-73
2022/04/18 15:03:42;;;;;;;;;;;21.50;30.10;;;;;;5083548;28;19920;-76
2022/04/18 15:06:08;;;;;;;;;;;21.80;29.40;;;;;;5078276;28;19920;-72
2022/04/18 15:08:34;;;;;;;;;;;21.70;29.60;;;;;;5078250;28;19942;-75
2022/04/18 15:10:59;;;;;;;;;;;21.80;27.90;;;;;;5060898;28;19920;-75
2022/04/18 15:13:31;;;;;;;;;;;21.90;28.30;;;;;;5077946;28;19924;-75
2022/04/18 15:15:59;;;;;;;;;;;22.20;28.40;;;;;;5061438;28;20022;-75
2022/04/18 15:18:25;;;;;;;;;;;22.60;28.30;;;;;;5078261;28;20377;-74